Terminal Aerodrome Forecast
Issued by NWS

Home | Current Version | Previous Version | Text Only | Print | Product List | Glossary On
Versions: 1 2 3 4 5 6 7 8 9 10 11 12 13 14 15 16 17 18 19 20 21 22 23 24 25 26 27 28 29 30 31 32
000
FTUS42 KRAH 300139 AAA
TAFINT
TAF AMD
KINT 300139Z 3002/3024 02007KT P6SM VCSH SCT015 BKN035
     FM300500 02003KT 5SM BR BKN025
     FM301500 04007KT P6SM OVC050 PROB30 3020/3024 4SM TSRA
      BKN025CB=

USA.gov is the U.S. government's official web portal to all federal, state and local government web resources and services.